createdAt,value
2023-01-10T00:01:52.442Z,97047.72
2023-01-10T00:04:59.307Z,97046.72
2023-01-10T00:08:05.661Z,97045.25
2023-01-10T00:11:27.214Z,97050.16
2023-01-10T00:14:35.409Z,97066.00
2023-01-10T00:17:42.307Z,97056.00
2023-01-10T00:20:50.313Z,97062.44
2023-01-10T00:23:57.177Z,97069.69
2023-01-10T00:27:05.910Z,97070.41
2023-01-10T00:30:16.655Z,97066.41
2023-01-10T00:33:22.852Z,97071.88
2023-01-10T00:36:29.715Z,97081.41
2023-01-10T00:39:35.728Z,97080.94
2023-01-10T00:42:57.545Z,97082.44
2023-01-10T00:46:04.241Z,97087.88
2023-01-10T00:49:12.354Z,97102.56
2023-01-10T00:52:18.421Z,97105.53
2023-01-10T00:55:25.551Z,97088.38
2023-01-10T00:58:34.307Z,97107.81
2023-01-10T01:01:41.253Z,97117.06
2023-01-10T01:04:47.434Z,97120.22
2023-01-10T01:07:56.008Z,97116.44
2023-01-10T01:11:02.065Z,97118.41
2023-01-10T01:14:11.681Z,97119.41
2023-01-10T01:17:17.770Z,97108.88
2023-01-10T01:20:24.666Z,97125.69
2023-01-10T01:23:31.005Z,97124.66
2023-01-10T01:26:38.261Z,97127.50
2023-01-10T01:29:46.916Z,97114.50
2023-01-10T01:32:54.204Z,97122.91
2023-01-10T01:36:00.434Z,97132.28
2023-01-10T01:39:07.830Z,97140.19
2023-01-10T01:42:28.517Z,97144.97
2023-01-10T01:45:42.902Z,97132.47
2023-01-10T01:48:49.219Z,97133.63
2023-01-10T01:52:06.096Z,97140.53
2023-01-10T01:55:12.624Z,97137.56
2023-01-10T01:58:28.134Z,97140.53
2023-01-10T02:01:41.382Z,97147.63
2023-01-10T02:04:57.399Z,97151.56
2023-01-10T02:08:05.427Z,97145.66
2023-01-10T02:11:13.792Z,97147.13
2023-01-10T02:14:23.569Z,97150.72
2023-01-10T02:17:33.543Z,97142.50
2023-01-10T02:21:16.242Z,97153.56
2023-01-10T02:25:11.980Z,97160.31
2023-01-10T02:28:54.937Z,97166.53
2023-01-10T02:32:43.777Z,97167.88
2023-01-10T02:36:17.841Z,97172.66
2023-01-10T02:39:37.836Z,97178.91
2023-01-10T02:42:58.578Z,97180.88
2023-01-10T02:46:13.223Z,97184.38
2023-01-10T02:49:22.956Z,97186.00
2023-01-10T02:52:34.490Z,97192.94
2023-01-10T02:56:10.860Z,97190.94
2023-01-10T03:00:07.106Z,97205.28
2023-01-10T03:03:36.209Z,97199.84
2023-01-10T03:06:56.157Z,97207.09
2023-01-10T03:10:13.873Z,97208.41
2023-01-10T03:13:30.299Z,97219.13
2023-01-10T03:16:43.414Z,97223.91
2023-01-10T03:19:59.489Z,97225.56
2023-01-10T03:23:09.862Z,97232.31
2023-01-10T03:26:20.747Z,97239.75
2023-01-10T03:29:37.050Z,97245.50
2023-01-10T03:32:44.858Z,97250.59
2023-01-10T03:36:16.889Z,97253.41
2023-01-10T03:39:40.213Z,97259.50
2023-01-10T03:43:13.317Z,97260.84
2023-01-10T03:46:34.019Z,97272.88
2023-01-10T03:49:48.523Z,97278.16
2023-01-10T03:52:54.905Z,97284.41
2023-01-10T03:56:05.051Z,97283.25
2023-01-10T03:59:11.148Z,97276.31
2023-01-10T04:02:18.089Z,97289.19
2023-01-10T04:05:24.173Z,97292.31
2023-01-10T04:08:31.003Z,97296.94
2023-01-10T04:11:39.864Z,97306.81
2023-01-10T04:14:48.489Z,97308.78
2023-01-10T04:17:54.520Z,97311.75
2023-01-10T04:21:01.352Z,97311.41
2023-01-10T04:24:07.777Z,97310.75
2023-01-10T04:27:17.441Z,97316.50
2023-01-10T04:30:24.079Z,97318.78
2023-01-10T04:33:31.467Z,97318.16
2023-01-10T04:36:37.886Z,97320.09
2023-01-10T04:39:44.797Z,97329.16
2023-01-10T04:42:53.471Z,97333.16
2023-01-10T04:46:00.433Z,97338.94
2023-01-10T04:49:06.466Z,97346.63
2023-01-10T04:52:14.171Z,97353.56
2023-01-10T04:55:20.575Z,97349.44
2023-01-10T04:58:30.019Z,97358.06
2023-01-10T05:01:39.356Z,97365.41
2023-01-10T05:04:46.293Z,97377.59
2023-01-10T05:07:52.407Z,97386.31
2023-01-10T05:10:59.395Z,97370.72
2023-01-10T05:14:08.062Z,97387.59
2023-01-10T05:17:15.054Z,97396.94
2023-01-10T05:20:21.464Z,97404.22
2023-01-10T05:23:28.359Z,97399.91
2023-01-10T05:26:34.420Z,97419.94
2023-01-10T05:29:43.920Z,97422.44
2023-01-10T05:32:50.040Z,97423.75
2023-01-10T05:35:57.115Z,97427.72
2023-01-10T05:39:03.154Z,97421.69
2023-01-10T05:42:10.201Z,97437.56
2023-01-10T05:45:19.549Z,97441.75
2023-01-10T05:48:27.076Z,97447.13
2023-01-10T05:51:33.415Z,97450.16
2023-01-10T05:54:41.282Z,97416.03
2023-01-10T05:57:47.320Z,97451.88
2023-01-10T06:00:59.530Z,97461.53
2023-01-10T06:04:05.617Z,97467.31
2023-01-10T06:07:12.521Z,97467.16
2023-01-10T06:10:19.537Z,97472.25
2023-01-10T06:13:28.175Z,97486.72
2023-01-10T06:16:37.100Z,97486.28
2023-01-10T06:19:43.985Z,97469.44
2023-01-10T06:22:50.118Z,97491.44
2023-01-10T06:25:57.021Z,97500.56
2023-01-10T06:29:03.000Z,97512.75
2023-01-10T06:32:12.529Z,97512.38
2023-01-10T06:35:18.791Z,97518.22
2023-01-10T06:38:25.728Z,97521.03
2023-01-10T06:41:31.871Z,97525.91
2023-01-10T06:44:38.812Z,97531.31
2023-01-10T06:47:47.740Z,97542.09
2023-01-10T06:50:54.702Z,97547.72
2023-01-10T06:54:00.886Z,97541.41
2023-01-10T06:57:07.989Z,97552.75
2023-01-10T07:00:15.825Z,97560.28
2023-01-10T07:03:25.449Z,97553.44
2023-01-10T07:06:31.680Z,97562.53
2023-01-10T07:09:38.571Z,97566.88
2023-01-10T07:12:44.694Z,97572.47
2023-01-10T07:15:51.640Z,97562.75
2023-01-10T07:19:00.267Z,97566.38
2023-01-10T07:22:07.232Z,97585.44
2023-01-10T07:25:13.503Z,97580.75
2023-01-10T07:28:20.487Z,97582.34
2023-01-10T07:31:26.691Z,97589.56
2023-01-10T07:34:36.272Z,97595.66
2023-01-10T07:37:42.317Z,97593.47
2023-01-10T07:40:49.297Z,97599.66
2023-01-10T07:43:55.294Z,97595.22
2023-01-10T07:47:02.359Z,97599.72
2023-01-10T07:50:13.006Z,97605.31
2023-01-10T07:53:19.986Z,97598.88
2023-01-10T07:56:27.092Z,97604.84
2023-01-10T07:59:33.973Z,97608.25
2023-01-10T08:02:40.230Z,97615.53
2023-01-10T08:05:50.076Z,97626.75
2023-01-10T08:08:56.188Z,97625.84
2023-01-10T08:12:03.238Z,97628.69
2023-01-10T08:15:11.492Z,97632.22
2023-01-10T08:18:18.371Z,97630.44
2023-01-10T08:21:27.147Z,97638.13
2023-01-10T08:24:34.091Z,97640.38
2023-01-10T08:27:41.533Z,97642.84
2023-01-10T08:30:50.596Z,97638.03
2023-01-10T08:33:57.046Z,97651.88
2023-01-10T08:37:07.417Z,97646.59
2023-01-10T08:40:15.255Z,97649.19
2023-01-10T08:43:22.286Z,97659.97
2023-01-10T08:46:28.580Z,97665.22
2023-01-10T08:49:35.633Z,97675.66
2023-01-10T08:52:44.357Z,97683.44
2023-01-10T08:55:52.861Z,97688.25
2023-01-10T08:58:59.125Z,97691.97
2023-01-10T09:02:08.767Z,97696.44
2023-01-10T09:05:26.449Z,97707.84
2023-01-10T09:08:36.710Z,97704.75
2023-01-10T09:11:43.078Z,97720.66
2023-01-10T09:14:49.962Z,97726.72
2023-01-10T09:17:57.965Z,97728.56
2023-01-10T09:21:05.938Z,97723.63
2023-01-10T09:24:14.652Z,97731.09
2023-01-10T09:27:21.480Z,97739.31
2023-01-10T09:30:29.271Z,97744.50
2023-01-10T09:33:46.156Z,97750.66
2023-01-10T09:36:53.622Z,97729.50
2023-01-10T09:40:03.104Z,97766.97
2023-01-10T09:43:25.632Z,97757.94
2023-01-10T09:46:52.673Z,97769.03
2023-01-10T09:50:18.164Z,97762.44
2023-01-10T09:53:30.819Z,97766.94
2023-01-10T09:56:41.873Z,97776.38
2023-01-10T09:59:51.848Z,97780.59
2023-01-10T10:02:58.220Z,97772.84
2023-01-10T10:06:12.233Z,97776.47
2023-01-10T10:09:26.478Z,97777.13
2023-01-10T10:12:51.448Z,97777.19
2023-01-10T10:16:15.982Z,97784.28
2023-01-10T10:19:43.784Z,97779.31
2023-01-10T10:23:18.553Z,97795.41
2023-01-10T10:26:38.448Z,97802.81
2023-01-10T10:30:25.008Z,97801.31
2023-01-10T10:33:56.839Z,97799.88
2023-01-10T10:37:13.004Z,97803.78
2023-01-10T10:40:25.815Z,97811.50
2023-01-10T10:43:38.539Z,97810.72
2023-01-10T10:46:48.544Z,97814.69
2023-01-10T10:50:10.157Z,97818.63
2023-01-10T10:53:19.099Z,97823.03
2023-01-10T10:56:29.544Z,97822.88
2023-01-10T10:59:36.764Z,97829.47
2023-01-10T11:02:53.181Z,97835.50
2023-01-10T11:06:03.461Z,97829.19
2023-01-10T11:09:12.771Z,97834.19
2023-01-10T11:12:36.382Z,97841.53
2023-01-10T11:15:46.896Z,97849.19
2023-01-10T11:19:22.036Z,97848.59
2023-01-10T11:22:29.150Z,97850.91
2023-01-10T11:25:36.798Z,97856.88
2023-01-10T11:28:46.034Z,97859.19
2023-01-10T11:31:56.232Z,97862.59
2023-01-10T11:35:11.025Z,97869.66
2023-01-10T11:38:30.268Z,97872.81
2023-01-10T11:41:37.099Z,97877.50
2023-01-10T11:44:44.050Z,97873.94
2023-01-10T11:47:56.322Z,97880.31
2023-01-10T11:51:06.049Z,97886.66
2023-01-10T11:54:23.160Z,97887.53
2023-01-10T11:57:35.570Z,97895.78
2023-01-10T12:00:48.935Z,97900.81
2023-01-10T12:03:56.029Z,97907.75
2023-01-10T12:07:13.824Z,97911.34
2023-01-10T12:10:26.894Z,97906.97
2023-01-10T12:13:45.722Z,97913.94
2023-01-10T12:17:04.070Z,97915.25
2023-01-10T12:20:18.745Z,97916.03
2023-01-10T12:23:35.052Z,97927.69
2023-01-10T12:26:42.553Z,97920.50
2023-01-10T12:30:01.956Z,97917.63
2023-01-10T12:33:17.561Z,97934.13
2023-01-10T12:36:45.402Z,97935.16
2023-01-10T12:40:05.102Z,97940.03
2023-01-10T12:43:42.737Z,97938.94
2023-01-10T12:47:09.382Z,97946.41
2023-01-10T12:50:25.929Z,97947.91
2023-01-10T12:53:43.822Z,97956.75
2023-01-10T12:56:55.756Z,97956.44
2023-01-10T13:00:08.172Z,97954.06
2023-01-10T13:03:22.459Z,97958.56
2023-01-10T13:06:37.024Z,97954.13
2023-01-10T13:09:47.490Z,97957.06
2023-01-10T13:13:07.553Z,97956.84
2023-01-10T13:16:39.142Z,97957.97
2023-01-10T13:19:45.255Z,97958.13
2023-01-10T13:22:55.877Z,97958.84
2023-01-10T13:26:09.825Z,97964.03
2023-01-10T13:29:25.115Z,97976.09
2023-01-10T13:32:38.727Z,97980.81
2023-01-10T13:35:49.349Z,97977.44
2023-01-10T13:39:01.447Z,97993.53
2023-01-10T13:42:43.189Z,98003.13
2023-01-10T13:46:26.780Z,98011.16
2023-01-10T13:49:47.463Z,98005.34
2023-01-10T13:52:53.874Z,98017.94
2023-01-10T13:56:00.933Z,98017.50
2023-01-10T13:59:27.056Z,98015.06
2023-01-10T14:02:36.912Z,98020.16
2023-01-10T14:05:52.187Z,98032.41
2023-01-10T14:09:02.972Z,98035.00
2023-01-10T14:12:25.039Z,98028.34
2023-01-10T14:15:39.986Z,98036.69
2023-01-10T14:18:50.284Z,98040.84
2023-01-10T14:22:01.939Z,98027.66
2023-01-10T14:25:22.205Z,98044.41
2023-01-10T14:28:33.057Z,98044.03
2023-01-10T14:31:42.084Z,98044.03
2023-01-10T14:34:52.217Z,98041.25
2023-01-10T14:38:04.843Z,98050.97
2023-01-10T14:41:25.252Z,98062.72
2023-01-10T14:44:44.703Z,98062.31
2023-01-10T14:47:51.883Z,98070.94
2023-01-10T14:51:12.543Z,98083.41
2023-01-10T14:54:23.671Z,98087.00
2023-01-10T14:57:29.877Z,98093.53
2023-01-10T15:00:40.917Z,98092.00
2023-01-10T15:03:49.967Z,98097.53
2023-01-10T15:07:03.026Z,98093.69
2023-01-10T15:10:28.856Z,98094.22
2023-01-10T15:13:49.090Z,98089.78
2023-01-10T15:17:02.729Z,98107.94
2023-01-10T15:20:13.658Z,98119.75
2023-01-10T15:23:27.360Z,98127.50
2023-01-10T15:26:34.955Z,98124.44
2023-01-10T15:29:47.160Z,98124.16
2023-01-10T15:32:58.939Z,98115.28
2023-01-10T15:36:15.472Z,98111.13
2023-01-10T15:39:32.510Z,98102.69
2023-01-10T15:42:38.857Z,98108.34
2023-01-10T15:45:47.079Z,98110.56
2023-01-10T15:49:03.192Z,98124.69
2023-01-10T15:52:25.464Z,98134.97
2023-01-10T15:55:51.549Z,98142.03
2023-01-10T15:59:03.263Z,98147.03
2023-01-10T16:02:25.799Z,98141.06
2023-01-10T16:05:32.929Z,98149.09
2023-01-10T16:08:42.255Z,98149.09
2023-01-10T16:12:08.361Z,98147.72
2023-01-10T16:15:24.682Z,98153.69
2023-01-10T16:18:32.016Z,98159.63
2023-01-10T16:21:44.291Z,98157.00
2023-01-10T16:24:53.108Z,98157.44
2023-01-10T16:28:02.902Z,98161.75
2023-01-10T16:31:15.971Z,98161.31
2023-01-10T16:34:24.648Z,98169.78
2023-01-10T16:37:31.621Z,98174.75
2023-01-10T16:40:43.103Z,98181.56
2023-01-10T16:43:50.847Z,98182.09
2023-01-10T16:46:57.071Z,98186.41
2023-01-10T16:50:04.047Z,98196.78
2023-01-10T16:53:11.129Z,98189.78
2023-01-10T16:56:22.079Z,98205.50
2023-01-10T16:59:30.815Z,98216.34
2023-01-10T17:02:38.193Z,98223.97
2023-01-10T17:05:44.808Z,98230.38
2023-01-10T17:08:52.239Z,98231.59
2023-01-10T17:12:04.925Z,98242.59
2023-01-10T17:15:18.084Z,98245.66
2023-01-10T17:18:29.529Z,98247.84
2023-01-10T17:21:36.730Z,98259.53
2023-01-10T17:24:42.945Z,98266.69
2023-01-10T17:27:49.963Z,98268.38
2023-01-10T17:30:59.781Z,98279.72
2023-01-10T17:34:06.783Z,98277.22
2023-01-10T17:37:13.272Z,98280.94
2023-01-10T17:40:20.738Z,98280.97
2023-01-10T17:43:27.222Z,98280.69
2023-01-10T17:46:36.831Z,98280.25
2023-01-10T17:49:44.398Z,98292.19
2023-01-10T17:52:51.370Z,98291.50
2023-01-10T17:56:00.272Z,98290.97
2023-01-10T17:59:08.062Z,98291.38
2023-01-10T18:02:21.370Z,98299.00
2023-01-10T18:05:28.831Z,98307.56
2023-01-10T18:08:35.061Z,98304.22
2023-01-10T18:11:42.360Z,98309.50
2023-01-10T18:14:49.952Z,98292.97
2023-01-10T18:17:59.824Z,98289.34
2023-01-10T18:21:07.615Z,98301.00
2023-01-10T18:24:14.821Z,98301.13
2023-01-10T18:27:21.173Z,98304.31
2023-01-10T18:30:28.341Z,98283.63
2023-01-10T18:33:37.479Z,98301.19
2023-01-10T18:36:44.407Z,98307.66
2023-01-10T18:39:50.830Z,98310.22
2023-01-10T18:42:58.814Z,98317.09
2023-01-10T18:46:23.730Z,98312.41
2023-01-10T18:49:48.397Z,98316.19
2023-01-10T18:53:09.719Z,98314.88
2023-01-10T18:56:30.637Z,98321.28
2023-01-10T18:59:51.346Z,98322.00
2023-01-10T19:03:12.101Z,98321.72
2023-01-10T19:06:35.634Z,98316.56
2023-01-10T19:09:56.564Z,98317.81
2023-01-10T19:13:17.383Z,98316.38
2023-01-10T19:16:41.111Z,98322.44
2023-01-10T19:20:01.936Z,98327.28
2023-01-10T19:23:25.671Z,98332.16
2023-01-10T19:26:47.185Z,98338.34
2023-01-10T19:30:11.333Z,98338.09
2023-01-10T19:33:33.279Z,98336.97
2023-01-10T19:37:00.455Z,98344.50
2023-01-10T19:40:24.224Z,98339.84
2023-01-10T19:43:45.726Z,98342.53
2023-01-10T19:47:07.137Z,98347.00
2023-01-10T19:50:31.204Z,98344.22
2023-01-10T19:53:58.526Z,98339.34
2023-01-10T19:57:22.298Z,98342.97
2023-01-10T20:00:49.567Z,98330.66
2023-01-10T20:04:11.373Z,98350.22
2023-01-10T20:07:33.296Z,98349.09
2023-01-10T20:10:54.340Z,98352.69
2023-01-10T20:14:20.827Z,98354.06
2023-01-10T20:17:43.481Z,98353.84
2023-01-10T20:21:08.171Z,98354.44
2023-01-10T20:24:29.372Z,98359.16
2023-01-10T20:27:51.025Z,98364.72
2023-01-10T20:31:19.715Z,98363.31
2023-01-10T20:34:40.735Z,98362.44
2023-01-10T20:38:09.853Z,98364.97
2023-01-10T20:41:33.376Z,98358.75
2023-01-10T20:45:00.383Z,98366.47
2023-01-10T20:48:25.148Z,98366.63
2023-01-10T20:51:46.238Z,98371.91
2023-01-10T20:55:08.206Z,98374.13
2023-01-10T20:58:29.536Z,98376.66
2023-01-10T21:01:55.078Z,98380.44
2023-01-10T21:05:19.575Z,98377.94
2023-01-10T21:08:40.955Z,98377.50
2023-01-10T21:12:13.903Z,98378.09
2023-01-10T21:15:50.762Z,98376.88
2023-01-10T21:19:14.447Z,98378.66
2023-01-10T21:22:38.117Z,98379.50
2023-01-10T21:26:06.872Z,98392.56
2023-01-10T21:29:27.764Z,98394.81
2023-01-10T21:32:49.308Z,98409.91
2023-01-10T21:36:13.017Z,98414.34
2023-01-10T21:39:39.250Z,98395.72
2023-01-10T21:43:00.359Z,98407.03
2023-01-10T21:46:21.335Z,98404.75
2023-01-10T21:49:42.372Z,98405.88
2023-01-10T21:53:03.499Z,98415.31
2023-01-10T21:56:27.016Z,98405.47
2023-01-10T21:59:47.880Z,98405.88
2023-01-10T22:03:08.858Z,98410.59
2023-01-10T22:06:29.888Z,98411.25
2023-01-10T22:09:52.272Z,98391.66
2023-01-10T22:13:15.760Z,98403.59
2023-01-10T22:16:36.611Z,98400.13
2023-01-10T22:19:57.790Z,98408.03
2023-01-10T22:23:18.718Z,98404.94
2023-01-10T22:26:39.566Z,98404.78
2023-01-10T22:30:18.292Z,98409.78
2023-01-10T22:33:42.964Z,98407.31
2023-01-10T22:37:03.921Z,98410.81
2023-01-10T22:40:25.003Z,98412.41
2023-01-10T22:43:46.446Z,98420.03
2023-01-10T22:47:10.381Z,98408.34
2023-01-10T22:50:31.331Z,98396.16
2023-01-10T22:53:53.908Z,98394.63
2023-01-10T22:57:14.855Z,98404.19
2023-01-10T23:00:35.849Z,98400.81
2023-01-10T23:03:59.842Z,98408.19
2023-01-10T23:07:21.496Z,98404.72
2023-01-10T23:10:43.919Z,98415.16
2023-01-10T23:14:04.856Z,98422.09
2023-01-10T23:17:28.722Z,98402.22
2023-01-10T23:20:54.094Z,98401.09
2023-01-10T23:24:16.124Z,98402.47
2023-01-10T23:27:38.671Z,98404.00
2023-01-10T23:30:59.527Z,98403.03
2023-01-10T23:34:20.972Z,98408.13
2023-01-10T23:37:44.556Z,98399.94
2023-01-10T23:41:07.100Z,98403.38
2023-01-10T23:44:29.105Z,98405.44
2023-01-10T23:47:49.993Z,98406.53
2023-01-10T23:51:11.694Z,98409.31
2023-01-10T23:54:35.137Z,98404.63
2023-01-10T23:57:55.982Z,98410.44
